首页
METAR-TAF:

METAR-TAF

机场 :

Grosse Ile Municipal Airport

底特律 / Grosse Ile, 密歇根州, 美国

纬度: 42-05-55N, 经度: 083-09-40W, 海拔: 180米

当前天气观测

该预报发布于8分钟前的16:40 UTC
风速8节,风向西转西北
温度 29°C
湿度 45%
气压 1018 hPa
能見度: 16.1公里
散云层高于6000英尺
散云层高于7000英尺

METAR: KONZ 261640Z AUTO 29008KT 10SM SCT060 SCT070 29/16 A3006 RMK AO2 T02870155

时间: 12:48 (16:48 UTC)


TAF: 丢失

超过4000个机场的气象观测和天气预报(METAR&TAF报告)。

可查询的气象台以黄色和红色小点在地图上表示。

将鼠标移到小点上方,可查看气象台名称。

然后点击查看天气观测和预报。

如需切换地图:点击带黑十字的绿色按钮放大地图;点击带横线的绿色按钮缩小地图;或者点击绿色箭头查看邻近地区的地图。


METAR-TAF: